sensor_id;sensor_type;location;lat;lon;timestamp;temperature;humidity
42199;DHT22;27868;45.184;5.786;2023-03-30T00:01:20;14.70;85.10
42199;DHT22;27868;45.184;5.786;2023-03-30T00:04:05;14.70;84.90
42199;DHT22;27868;45.184;5.786;2023-03-30T00:06:49;14.60;84.90
42199;DHT22;27868;45.184;5.786;2023-03-30T00:09:34;14.60;84.90
42199;DHT22;27868;45.184;5.786;2023-03-30T00:12:25;14.60;85.10
42199;DHT22;27868;45.184;5.786;2023-03-30T00:15:10;14.60;85.30
42199;DHT22;27868;45.184;5.786;2023-03-30T00:17:55;14.60;85.60
42199;DHT22;27868;45.184;5.786;2023-03-30T00:20:40;14.50;88.30
42199;DHT22;27868;45.184;5.786;2023-03-30T00:23:26;14.30;88.50
42199;DHT22;27868;45.184;5.786;2023-03-30T00:26:10;14.20;90.40
42199;DHT22;27868;45.184;5.786;2023-03-30T00:28:56;14.00;90.70
42199;DHT22;27868;45.184;5.786;2023-03-30T00:31:41;14.00;91.70
42199;DHT22;27868;45.184;5.786;2023-03-30T00:34:25;13.90;91.00
42199;DHT22;27868;45.184;5.786;2023-03-30T00:37:10;13.90;92.50
42199;DHT22;27868;45.184;5.786;2023-03-30T00:39:55;13.90;91.60
42199;DHT22;27868;45.184;5.786;2023-03-30T00:42:40;14.00;91.70
42199;DHT22;27868;45.184;5.786;2023-03-30T00:45:25;13.90;91.80
42199;DHT22;27868;45.184;5.786;2023-03-30T00:48:44;14.00;91.50
42199;DHT22;27868;45.184;5.786;2023-03-30T00:51:24;14.10;91.30
42199;DHT22;27868;45.184;5.786;2023-03-30T00:54:11;14.20;90.90
42199;DHT22;27868;45.184;5.786;2023-03-30T00:56:56;14.20;90.90
42199;DHT22;27868;45.184;5.786;2023-03-30T00:59:40;14.20;91.50
42199;DHT22;27868;45.184;5.786;2023-03-30T01:02:26;14.00;92.10
42199;DHT22;27868;45.184;5.786;2023-03-30T01:05:11;14.00;92.00
42199;DHT22;27868;45.184;5.786;2023-03-30T01:07:56;14.10;91.80
42199;DHT22;27868;45.184;5.786;2023-03-30T01:10:44;14.00;91.60
42199;DHT22;27868;45.184;5.786;2023-03-30T01:13:29;14.00;91.70
42199;DHT22;27868;45.184;5.786;2023-03-30T01:39:57;14.30;91.30
42199;DHT22;27868;45.184;5.786;2023-03-30T01:42:49;14.10;92.60
42199;DHT22;27868;45.184;5.786;2023-03-30T01:45:53;14.10;92.00
42199;DHT22;27868;45.184;5.786;2023-03-30T01:48:42;14.20;91.70
42199;DHT22;27868;45.184;5.786;2023-03-30T01:51:30;14.10;92.10
42199;DHT22;27868;45.184;5.786;2023-03-30T01:54:23;14.10;92.10
42199;DHT22;27868;45.184;5.786;2023-03-30T01:57:12;14.20;91.70
42199;DHT22;27868;45.184;5.786;2023-03-30T02:00:08;14.10;91.60
42199;DHT22;27868;45.184;5.786;2023-03-30T02:03:01;14.20;91.40
42199;DHT22;27868;45.184;5.786;2023-03-30T02:05:49;14.30;91.30
42199;DHT22;27868;45.184;5.786;2023-03-30T02:08:35;14.30;91.30
42199;DHT22;27868;45.184;5.786;2023-03-30T02:11:21;13.80;91.10
42199;DHT22;27868;45.184;5.786;2023-03-30T02:14:07;14.40;91.00
42199;DHT22;27868;45.184;5.786;2023-03-30T02:16:54;14.40;90.90
42199;DHT22;27868;45.184;5.786;2023-03-30T02:19:42;14.40;90.90
42199;DHT22;27868;45.184;5.786;2023-03-30T02:22:29;14.50;90.80
42199;DHT22;27868;45.184;5.786;2023-03-30T02:25:15;14.60;90.90
42199;DHT22;27868;45.184;5.786;2023-03-30T02:28:00;14.40;90.70
42199;DHT22;27868;45.184;5.786;2023-03-30T02:30:45;14.40;90.60
42199;DHT22;27868;45.184;5.786;2023-03-30T02:39:22;14.20;90.70
42199;DHT22;27868;45.184;5.786;2023-03-30T02:42:25;14.20;90.70
42199;DHT22;27868;45.184;5.786;2023-03-30T02:45:17;14.10;91.00
42199;DHT22;27868;45.184;5.786;2023-03-30T02:51:04;14.10;90.70
42199;DHT22;27868;45.184;5.786;2023-03-30T02:54:00;14.10;90.60
42199;DHT22;27868;45.184;5.786;2023-03-30T02:57:11;14.10;90.50
42199;DHT22;27868;45.184;5.786;2023-03-30T03:02:59;14.10;90.30
42199;DHT22;27868;45.184;5.786;2023-03-30T03:05:48;13.90;90.70
42199;DHT22;27868;45.184;5.786;2023-03-30T03:08:38;13.90;90.50
42199;DHT22;27868;45.184;5.786;2023-03-30T03:11:23;13.90;90.50
42199;DHT22;27868;45.184;5.786;2023-03-30T03:14:07;13.90;90.50
42199;DHT22;27868;45.184;5.786;2023-03-30T03:16:53;13.90;90.50
42199;DHT22;27868;45.184;5.786;2023-03-30T03:19:38;13.80;91.40
42199;DHT22;27868;45.184;5.786;2023-03-30T03:22:22;13.80;90.70
42199;DHT22;27868;45.184;5.786;2023-03-30T03:25:07;13.80;90.50
42199;DHT22;27868;45.184;5.786;2023-03-30T03:27:51;13.80;90.50
42199;DHT22;27868;45.184;5.786;2023-03-30T03:30:36;13.80;90.50
42199;DHT22;27868;45.184;5.786;2023-03-30T03:33:20;13.70;90.30
42199;DHT22;27868;45.184;5.786;2023-03-30T03:36:05;13.70;90.30
42199;DHT22;27868;45.184;5.786;2023-03-30T03:38:49;13.70;90.30
42199;DHT22;27868;45.184;5.786;2023-03-30T03:41:35;13.70;90.20
42199;DHT22;27868;45.184;5.786;2023-03-30T03:44:19;13.70;90.90
42199;DHT22;27868;45.184;5.786;2023-03-30T03:47:04;13.60;90.30
42199;DHT22;27868;45.184;5.786;2023-03-30T03:49:49;13.60;90.40
42199;DHT22;27868;45.184;5.786;2023-03-30T03:52:35;13.60;90.40
42199;DHT22;27868;45.184;5.786;2023-03-30T03:55:19;13.60;90.40
42199;DHT22;27868;45.184;5.786;2023-03-30T03:58:04;13.60;90.40
42199;DHT22;27868;45.184;5.786;2023-03-30T04:00:49;13.60;90.40
42199;DHT22;27868;45.184;5.786;2023-03-30T04:03:34;13.60;90.40
42199;DHT22;27868;45.184;5.786;2023-03-30T04:06:18;13.50;90.40
42199;DHT22;27868;45.184;5.786;2023-03-30T04:09:03;13.50;90.50
42199;DHT22;27868;45.184;5.786;2023-03-30T04:11:47;13.50;90.50
42199;DHT22;27868;45.184;5.786;2023-03-30T04:14:32;13.50;90.50
42199;DHT22;27868;45.184;5.786;2023-03-30T04:17:18;13.50;90.50
42199;DHT22;27868;45.184;5.786;2023-03-30T04:20:07;13.50;90.60
42199;DHT22;27868;45.184;5.786;2023-03-30T04:22:54;13.40;90.70
42199;DHT22;27868;45.184;5.786;2023-03-30T04:25:40;13.50;90.70
42199;DHT22;27868;45.184;5.786;2023-03-30T04:28:25;13.20;91.20
42199;DHT22;27868;45.184;5.786;2023-03-30T04:31:13;13.20;91.10
42199;DHT22;27868;45.184;5.786;2023-03-30T04:33:57;13.20;91.40
42199;DHT22;27868;45.184;5.786;2023-03-30T04:36:45;13.10;91.60
42199;DHT22;27868;45.184;5.786;2023-03-30T04:39:30;13.10;91.60
42199;DHT22;27868;45.184;5.786;2023-03-30T04:42:15;13.20;91.20
42199;DHT22;27868;45.184;5.786;2023-03-30T04:45:06;13.20;91.10
42199;DHT22;27868;45.184;5.786;2023-03-30T04:47:51;13.30;91.10
42199;DHT22;27868;45.184;5.786;2023-03-30T04:50:36;13.30;91.00
42199;DHT22;27868;45.184;5.786;2023-03-30T04:53:21;13.30;91.00
42199;DHT22;27868;45.184;5.786;2023-03-30T04:56:06;13.30;90.80
42199;DHT22;27868;45.184;5.786;2023-03-30T05:06:54;13.40;90.60
42199;DHT22;27868;45.184;5.786;2023-03-30T05:09:40;13.40;90.50
42199;DHT22;27868;45.184;5.786;2023-03-30T05:12:45;13.40;90.60
42199;DHT22;27868;45.184;5.786;2023-03-30T05:15:29;13.40;90.50
42199;DHT22;27868;45.184;5.786;2023-03-30T05:18:17;13.40;90.60
42199;DHT22;27868;45.184;5.786;2023-03-30T05:21:05;13.40;90.30
42199;DHT22;27868;45.184;5.786;2023-03-30T05:23:49;13.50;90.30
42199;DHT22;27868;45.184;5.786;2023-03-30T05:26:35;13.50;90.10
42199;DHT22;27868;45.184;5.786;2023-03-30T05:29:19;13.50;90.00
42199;DHT22;27868;45.184;5.786;2023-03-30T05:32:05;13.40;90.00
42199;DHT22;27868;45.184;5.786;2023-03-30T05:34:50;13.40;90.10
42199;DHT22;27868;45.184;5.786;2023-03-30T05:40:25;13.40;90.10
42199;DHT22;27868;45.184;5.786;2023-03-30T09:29:45;15.90;77.50
42199;DHT22;27868;45.184;5.786;2023-03-30T09:32:39;15.90;78.00
42199;DHT22;27868;45.184;5.786;2023-03-30T09:35:31;16.00;76.60
42199;DHT22;27868;45.184;5.786;2023-03-30T09:38:19;15.80;77.60
42199;DHT22;27868;45.184;5.786;2023-03-30T09:47:34;16.20;75.30
42199;DHT22;27868;45.184;5.786;2023-03-30T09:50:25;16.40;77.70
42199;DHT22;27868;45.184;5.786;2023-03-30T09:56:07;16.50;78.00
42199;DHT22;27868;45.184;5.786;2023-03-30T09:58:54;16.50;77.40
42199;DHT22;27868;45.184;5.786;2023-03-30T10:01:39;16.60;77.80
42199;DHT22;27868;45.184;5.786;2023-03-30T10:04:24;16.70;78.00
42199;DHT22;27868;45.184;5.786;2023-03-30T10:07:18;16.50;77.40
42199;DHT22;27868;45.184;5.786;2023-03-30T10:13:05;17.10;77.40
42199;DHT22;27868;45.184;5.786;2023-03-30T10:15:51;17.10;77.10
42199;DHT22;27868;45.184;5.786;2023-03-30T10:18:42;16.60;76.80
42199;DHT22;27868;45.184;5.786;2023-03-30T10:21:35;17.30;77.10
42199;DHT22;27868;45.184;5.786;2023-03-30T10:24:21;17.40;77.10
42199;DHT22;27868;45.184;5.786;2023-03-30T10:37:08;17.70;74.40
42199;DHT22;27868;45.184;5.786;2023-03-30T10:39:54;17.80;72.50
42199;DHT22;27868;45.184;5.786;2023-03-30T10:43:14;17.80;72.70
42199;DHT22;27868;45.184;5.786;2023-03-30T10:46:35;17.70;73.60
42199;DHT22;27868;45.184;5.786;2023-03-30T10:52:26;17.90;74.40
42199;DHT22;27868;45.184;5.786;2023-03-30T10:55:24;18.00;74.70
42199;DHT22;27868;45.184;5.786;2023-03-30T11:14:55;18.10;73.30
42199;DHT22;27868;45.184;5.786;2023-03-30T11:20:15;17.60;71.50
42199;DHT22;27868;45.184;5.786;2023-03-30T11:23:02;17.70;73.10
42199;DHT22;27868;45.184;5.786;2023-03-30T11:26:02;17.90;74.10
42199;DHT22;27868;45.184;5.786;2023-03-30T11:28:49;17.90;73.80
42199;DHT22;27868;45.184;5.786;2023-03-30T11:37:24;17.90;72.70
42199;DHT22;27868;45.184;5.786;2023-03-30T11:40:17;17.80;72.50
42199;DHT22;27868;45.184;5.786;2023-03-30T11:43:03;17.70;71.90
42199;DHT22;27868;45.184;5.786;2023-03-30T11:46:05;17.80;72.90
42199;DHT22;27868;45.184;5.786;2023-03-30T12:00:07;17.90;71.80
42199;DHT22;27868;45.184;5.786;2023-03-30T12:05:52;17.80;73.10
42199;DHT22;27868;45.184;5.786;2023-03-30T12:08:47;17.80;73.40
42199;DHT22;27868;45.184;5.786;2023-03-30T12:28:42;17.90;72.70
42199;DHT22;27868;45.184;5.786;2023-03-30T12:31:47;18.10;73.20
42199;DHT22;27868;45.184;5.786;2023-03-30T12:34:33;18.20;73.60
42199;DHT22;27868;45.184;5.786;2023-03-30T12:37:18;18.30;73.80
42199;DHT22;27868;45.184;5.786;2023-03-30T12:40:16;18.20;71.30
42199;DHT22;27868;45.184;5.786;2023-03-30T12:43:09;18.30;73.80
42199;DHT22;27868;45.184;5.786;2023-03-30T12:46:19;18.50;72.90
42199;DHT22;27868;45.184;5.786;2023-03-30T12:49:13;18.60;73.20
42199;DHT22;27868;45.184;5.786;2023-03-30T13:03:42;18.80;70.00
42199;DHT22;27868;45.184;5.786;2023-03-30T13:06:36;18.90;71.50
42199;DHT22;27868;45.184;5.786;2023-03-30T13:21:16;19.00;70.70
42199;DHT22;27868;45.184;5.786;2023-03-30T13:24:03;19.00;71.30
42199;DHT22;27868;45.184;5.786;2023-03-30T13:26:48;19.10;71.40
42199;DHT22;27868;45.184;5.786;2023-03-30T13:29:33;19.20;71.10
42199;DHT22;27868;45.184;5.786;2023-03-30T13:46:54;19.60;69.90
42199;DHT22;27868;45.184;5.786;2023-03-30T13:52:38;19.70;66.50
42199;DHT22;27868;45.184;5.786;2023-03-30T13:55:28;19.80;68.50
42199;DHT22;27868;45.184;5.786;2023-03-30T13:58:21;20.00;68.10
42199;DHT22;27868;45.184;5.786;2023-03-30T14:01:12;20.00;62.80
42199;DHT22;27868;45.184;5.786;2023-03-30T14:03:58;20.10;66.80
42199;DHT22;27868;45.184;5.786;2023-03-30T14:06:45;20.20;67.70
42199;DHT22;27868;45.184;5.786;2023-03-30T14:09:30;20.20;66.90
42199;DHT22;27868;45.184;5.786;2023-03-30T14:12:14;20.10;66.40
42199;DHT22;27868;45.184;5.786;2023-03-30T14:14:59;20.20;65.90
42199;DHT22;27868;45.184;5.786;2023-03-30T14:17:55;20.20;65.90
42199;DHT22;27868;45.184;5.786;2023-03-30T14:21:02;20.30;66.30
42199;DHT22;27868;45.184;5.786;2023-03-30T14:23:50;20.40;66.80
42199;DHT22;27868;45.184;5.786;2023-03-30T14:26:37;20.50;66.90
42199;DHT22;27868;45.184;5.786;2023-03-30T14:29:22;20.50;66.50
42199;DHT22;27868;45.184;5.786;2023-03-30T14:32:10;20.60;66.70
42199;DHT22;27868;45.184;5.786;2023-03-30T14:34:56;20.70;67.10
42199;DHT22;27868;45.184;5.786;2023-03-30T14:37:42;20.80;66.70
42199;DHT22;27868;45.184;5.786;2023-03-30T14:40:27;20.90;66.20
42199;DHT22;27868;45.184;5.786;2023-03-30T14:43:13;21.00;65.50
42199;DHT22;27868;45.184;5.786;2023-03-30T14:46:01;20.90;64.90
42199;DHT22;27868;45.184;5.786;2023-03-30T14:48:47;21.00;64.00
42199;DHT22;27868;45.184;5.786;2023-03-30T14:51:36;20.90;60.60
42199;DHT22;27868;45.184;5.786;2023-03-30T14:54:23;20.90;62.90
42199;DHT22;27868;45.184;5.786;2023-03-30T14:57:08;20.90;64.70
42199;DHT22;27868;45.184;5.786;2023-03-30T14:59:56;20.90;64.50
42199;DHT22;27868;45.184;5.786;2023-03-30T15:02:42;20.90;64.80
42199;DHT22;27868;45.184;5.786;2023-03-30T15:05:34;20.80;64.50
42199;DHT22;27868;45.184;5.786;2023-03-30T15:08:21;20.80;64.90
42199;DHT22;27868;45.184;5.786;2023-03-30T15:11:10;20.70;64.60
42199;DHT22;27868;45.184;5.786;2023-03-30T15:13:56;20.80;64.70
42199;DHT22;27868;45.184;5.786;2023-03-30T15:16:46;20.70;64.80
42199;DHT22;27868;45.184;5.786;2023-03-30T15:19:33;20.80;64.60
42199;DHT22;27868;45.184;5.786;2023-03-30T15:22:25;20.80;65.00
42199;DHT22;27868;45.184;5.786;2023-03-30T15:25:12;20.80;65.20
42199;DHT22;27868;45.184;5.786;2023-03-30T15:28:01;20.70;65.10
42199;DHT22;27868;45.184;5.786;2023-03-30T15:30:47;20.70;65.20
42199;DHT22;27868;45.184;5.786;2023-03-30T15:33:35;20.80;65.70
42199;DHT22;27868;45.184;5.786;2023-03-30T15:36:23;20.70;65.80
42199;DHT22;27868;45.184;5.786;2023-03-30T15:39:22;20.70;65.50
42199;DHT22;27868;45.184;5.786;2023-03-30T15:42:06;20.70;65.70
42199;DHT22;27868;45.184;5.786;2023-03-30T15:44:59;20.70;65.10
42199;DHT22;27868;45.184;5.786;2023-03-30T15:47:44;20.60;65.00
42199;DHT22;27868;45.184;5.786;2023-03-30T15:50:28;20.60;65.10
42199;DHT22;27868;45.184;5.786;2023-03-30T15:53:16;20.50;63.90
42199;DHT22;27868;45.184;5.786;2023-03-30T15:56:02;20.50;63.70
42199;DHT22;27868;45.184;5.786;2023-03-30T15:58:47;20.40;64.00
42199;DHT22;27868;45.184;5.786;2023-03-30T16:01:42;20.40;64.10
42199;DHT22;27868;45.184;5.786;2023-03-30T16:04:29;20.30;63.50
42199;DHT22;27868;45.184;5.786;2023-03-30T16:07:20;20.20;61.50
42199;DHT22;27868;45.184;5.786;2023-03-30T16:10:05;20.20;60.10
42199;DHT22;27868;45.184;5.786;2023-03-30T16:12:51;20.20;63.10
42199;DHT22;27868;45.184;5.786;2023-03-30T16:15:36;20.20;60.90
42199;DHT22;27868;45.184;5.786;2023-03-30T16:18:20;20.20;62.60
42199;DHT22;27868;45.184;5.786;2023-03-30T16:21:05;20.10;62.10
42199;DHT22;27868;45.184;5.786;2023-03-30T16:23:50;20.10;63.50
42199;DHT22;27868;45.184;5.786;2023-03-30T16:26:35;20.00;63.60
42199;DHT22;27868;45.184;5.786;2023-03-30T16:29:21;20.00;63.20
42199;DHT22;27868;45.184;5.786;2023-03-30T16:32:06;20.00;64.10
42199;DHT22;27868;45.184;5.786;2023-03-30T16:34:52;20.00;64.00
42199;DHT22;27868;45.184;5.786;2023-03-30T16:37:37;20.00;64.30
42199;DHT22;27868;45.184;5.786;2023-03-30T16:40:30;20.00;64.60
42199;DHT22;27868;45.184;5.786;2023-03-30T16:43:15;20.00;65.00
42199;DHT22;27868;45.184;5.786;2023-03-30T16:45:59;19.90;64.30
42199;DHT22;27868;45.184;5.786;2023-03-30T16:48:44;19.80;64.30
42199;DHT22;27868;45.184;5.786;2023-03-30T16:51:29;19.80;64.30
42199;DHT22;27868;45.184;5.786;2023-03-30T16:54:13;19.80;65.00
42199;DHT22;27868;45.184;5.786;2023-03-30T16:56:59;19.80;64.90
42199;DHT22;27868;45.184;5.786;2023-03-30T16:59:43;19.80;65.20
42199;DHT22;27868;45.184;5.786;2023-03-30T17:02:28;19.80;65.40
42199;DHT22;27868;45.184;5.786;2023-03-30T17:05:13;19.70;65.70
42199;DHT22;27868;45.184;5.786;2023-03-30T17:08:12;19.70;66.10
42199;DHT22;27868;45.184;5.786;2023-03-30T17:10:58;19.60;66.00
42199;DHT22;27868;45.184;5.786;2023-03-30T17:13:44;19.60;66.10
42199;DHT22;27868;45.184;5.786;2023-03-30T17:16:30;19.60;66.30
42199;DHT22;27868;45.184;5.786;2023-03-30T17:19:15;19.50;66.40
42199;DHT22;27868;45.184;5.786;2023-03-30T17:21:59;19.50;66.80
42199;DHT22;27868;45.184;5.786;2023-03-30T17:24:44;19.50;66.90
42199;DHT22;27868;45.184;5.786;2023-03-30T17:27:28;19.50;66.90
42199;DHT22;27868;45.184;5.786;2023-03-30T17:30:15;19.40;67.10
42199;DHT22;27868;45.184;5.786;2023-03-30T17:33:00;19.30;67.50
42199;DHT22;27868;45.184;5.786;2023-03-30T17:35:47;19.20;67.60
42199;DHT22;27868;45.184;5.786;2023-03-30T17:38:32;19.20;67.90
42199;DHT22;27868;45.184;5.786;2023-03-30T17:41:17;19.10;68.10
42199;DHT22;27868;45.184;5.786;2023-03-30T17:44:02;19.10;68.60
42199;DHT22;27868;45.184;5.786;2023-03-30T17:46:47;19.00;68.70
42199;DHT22;27868;45.184;5.786;2023-03-30T17:49:31;18.90;68.90
42199;DHT22;27868;45.184;5.786;2023-03-30T17:52:16;18.90;69.00
42199;DHT22;27868;45.184;5.786;2023-03-30T17:55:00;18.80;69.20
42199;DHT22;27868;45.184;5.786;2023-03-30T17:57:45;18.70;69.40
42199;DHT22;27868;45.184;5.786;2023-03-30T18:00:31;18.60;69.60
42199;DHT22;27868;45.184;5.786;2023-03-30T18:03:16;18.60;69.90
42199;DHT22;27868;45.184;5.786;2023-03-30T18:06:01;18.50;70.20
42199;DHT22;27868;45.184;5.786;2023-03-30T18:08:45;18.40;70.40
42199;DHT22;27868;45.184;5.786;2023-03-30T18:11:31;18.40;70.60
42199;DHT22;27868;45.184;5.786;2023-03-30T18:14:16;18.20;70.80
42199;DHT22;27868;45.184;5.786;2023-03-30T18:17:00;18.20;71.10
42199;DHT22;27868;45.184;5.786;2023-03-30T18:19:45;18.10;71.20
42199;DHT22;27868;45.184;5.786;2023-03-30T18:22:29;18.10;71.40
42199;DHT22;27868;45.184;5.786;2023-03-30T18:25:14;18.00;71.60
42199;DHT22;27868;45.184;5.786;2023-03-30T18:27:59;17.90;71.80
42199;DHT22;27868;45.184;5.786;2023-03-30T18:30:44;17.90;72.00
42199;DHT22;27868;45.184;5.786;2023-03-30T18:33:28;17.80;72.50
42199;DHT22;27868;45.184;5.786;2023-03-30T18:36:13;17.70;72.50
42199;DHT22;27868;45.184;5.786;2023-03-30T18:38:58;17.70;72.70
42199;DHT22;27868;45.184;5.786;2023-03-30T18:41:43;17.60;72.80
42199;DHT22;27868;45.184;5.786;2023-03-30T18:44:29;17.60;72.90
42199;DHT22;27868;45.184;5.786;2023-03-30T18:47:15;17.40;73.00
42199;DHT22;27868;45.184;5.786;2023-03-30T18:49:59;17.50;73.20
42199;DHT22;27868;45.184;5.786;2023-03-30T18:56:08;17.50;73.40
42199;DHT22;27868;45.184;5.786;2023-03-30T18:58:54;17.40;73.50
42199;DHT22;27868;45.184;5.786;2023-03-30T19:01:39;17.30;73.70
42199;DHT22;27868;45.184;5.786;2023-03-30T19:04:24;17.20;73.80
42199;DHT22;27868;45.184;5.786;2023-03-30T19:07:09;17.20;74.10
42199;DHT22;27868;45.184;5.786;2023-03-30T19:09:54;17.10;74.10
42199;DHT22;27868;45.184;5.786;2023-03-30T19:12:39;17.10;74.60
42199;DHT22;27868;45.184;5.786;2023-03-30T19:15:25;17.00;74.70
42199;DHT22;27868;45.184;5.786;2023-03-30T19:18:11;16.90;74.50
42199;DHT22;27868;45.184;5.786;2023-03-30T19:20:57;16.90;74.80
42199;DHT22;27868;45.184;5.786;2023-03-30T19:23:42;16.90;75.10
42199;DHT22;27868;45.184;5.786;2023-03-30T19:26:29;16.90;74.80
42199;DHT22;27868;45.184;5.786;2023-03-30T19:29:13;16.80;75.00
42199;DHT22;27868;45.184;5.786;2023-03-30T19:31:59;16.80;75.10
42199;DHT22;27868;45.184;5.786;2023-03-30T19:34:44;16.80;75.30
42199;DHT22;27868;45.184;5.786;2023-03-30T19:37:29;16.80;75.20
42199;DHT22;27868;45.184;5.786;2023-03-30T19:40:14;16.80;75.50
42199;DHT22;27868;45.184;5.786;2023-03-30T19:43:01;16.70;75.50
42199;DHT22;27868;45.184;5.786;2023-03-30T19:45:50;16.70;75.50
42199;DHT22;27868;45.184;5.786;2023-03-30T19:48:38;16.70;75.80
42199;DHT22;27868;45.184;5.786;2023-03-30T19:51:23;16.60;76.20
42199;DHT22;27868;45.184;5.786;2023-03-30T19:54:08;16.60;76.20
42199;DHT22;27868;45.184;5.786;2023-03-30T19:56:53;16.60;76.40
42199;DHT22;27868;45.184;5.786;2023-03-30T19:59:39;16.50;76.20
42199;DHT22;27868;45.184;5.786;2023-03-30T20:02:24;15.70;76.30
42199;DHT22;27868;45.184;5.786;2023-03-30T20:05:09;16.40;76.50
42199;DHT22;27868;45.184;5.786;2023-03-30T20:08:00;16.30;76.50
42199;DHT22;27868;45.184;5.786;2023-03-30T20:10:46;16.30;76.80
42199;DHT22;27868;45.184;5.786;2023-03-30T20:13:34;16.20;77.00
42199;DHT22;27868;45.184;5.786;2023-03-30T20:16:22;16.20;77.20
42199;DHT22;27868;45.184;5.786;2023-03-30T20:19:09;16.10;77.50
42199;DHT22;27868;45.184;5.786;2023-03-30T20:22:00;16.10;77.70
42199;DHT22;27868;45.184;5.786;2023-03-30T20:24:45;16.30;77.60
42199;DHT22;27868;45.184;5.786;2023-03-30T20:27:30;16.00;77.90
42199;DHT22;27868;45.184;5.786;2023-03-30T20:30:17;15.80;77.50
42199;DHT22;27868;45.184;5.786;2023-03-30T20:33:02;16.00;77.70
42199;DHT22;27868;45.184;5.786;2023-03-30T20:35:50;16.00;77.80
42199;DHT22;27868;45.184;5.786;2023-03-30T20:38:35;16.00;77.80
42199;DHT22;27868;45.184;5.786;2023-03-30T20:41:22;16.00;78.00
42199;DHT22;27868;45.184;5.786;2023-03-30T20:44:08;15.90;78.20
42199;DHT22;27868;45.184;5.786;2023-03-30T20:46:56;16.50;78.60
42199;DHT22;27868;45.184;5.786;2023-03-30T20:49:42;15.80;78.30
42199;DHT22;27868;45.184;5.786;2023-03-30T20:52:27;15.80;78.40
42199;DHT22;27868;45.184;5.786;2023-03-30T20:55:12;15.70;78.40
42199;DHT22;27868;45.184;5.786;2023-03-30T21:00:39;15.70;78.50
42199;DHT22;27868;45.184;5.786;2023-03-30T21:03:24;15.60;78.50
42199;DHT22;27868;45.184;5.786;2023-03-30T21:06:13;15.60;78.50
42199;DHT22;27868;45.184;5.786;2023-03-30T21:09:00;15.60;78.60
42199;DHT22;27868;45.184;5.786;2023-03-30T21:11:45;15.60;78.70
42199;DHT22;27868;45.184;5.786;2023-03-30T21:14:29;15.60;78.90
42199;DHT22;27868;45.184;5.786;2023-03-30T21:17:14;15.50;78.90
42199;DHT22;27868;45.184;5.786;2023-03-30T21:19:58;15.40;79.00
42199;DHT22;27868;45.184;5.786;2023-03-30T21:22:44;15.40;79.10
42199;DHT22;27868;45.184;5.786;2023-03-30T21:25:28;15.30;79.20
42199;DHT22;27868;45.184;5.786;2023-03-30T21:28:13;15.30;79.20
42199;DHT22;27868;45.184;5.786;2023-03-30T21:30:58;15.30;79.40
42199;DHT22;27868;45.184;5.786;2023-03-30T21:33:43;15.30;79.40
42199;DHT22;27868;45.184;5.786;2023-03-30T21:36:27;15.30;79.40
42199;DHT22;27868;45.184;5.786;2023-03-30T21:39:12;15.20;79.60
42199;DHT22;27868;45.184;5.786;2023-03-30T21:41:56;15.20;79.70
42199;DHT22;27868;45.184;5.786;2023-03-30T21:44:41;15.20;79.90
42199;DHT22;27868;45.184;5.786;2023-03-30T21:47:25;15.10;80.30
42199;DHT22;27868;45.184;5.786;2023-03-30T21:50:10;15.10;80.30
42199;DHT22;27868;45.184;5.786;2023-03-30T21:52:57;15.10;80.50
42199;DHT22;27868;45.184;5.786;2023-03-30T21:55:42;15.10;80.60
42199;DHT22;27868;45.184;5.786;2023-03-30T21:58:27;15.10;80.60
42199;DHT22;27868;45.184;5.786;2023-03-30T22:01:12;15.00;80.50
42199;DHT22;27868;45.184;5.786;2023-03-30T22:03:56;15.00;80.70
42199;DHT22;27868;45.184;5.786;2023-03-30T22:06:41;15.00;80.70
42199;DHT22;27868;45.184;5.786;2023-03-30T22:09:26;15.00;80.70
42199;DHT22;27868;45.184;5.786;2023-03-30T22:12:10;14.90;80.90
42199;DHT22;27868;45.184;5.786;2023-03-30T22:14:55;14.90;81.10
42199;DHT22;27868;45.184;5.786;2023-03-30T22:17:39;14.90;81.30
42199;DHT22;27868;45.184;5.786;2023-03-30T22:20:29;14.90;81.40
42199;DHT22;27868;45.184;5.786;2023-03-30T22:23:13;14.90;81.50
42199;DHT22;27868;45.184;5.786;2023-03-30T22:25:58;14.80;81.50
42199;DHT22;27868;45.184;5.786;2023-03-30T22:28:42;14.80;82.10
42199;DHT22;27868;45.184;5.786;2023-03-30T22:31:27;14.80;81.80
42199;DHT22;27868;45.184;5.786;2023-03-30T22:34:11;14.80;82.00
42199;DHT22;27868;45.184;5.786;2023-03-30T22:36:56;14.70;82.10
42199;DHT22;27868;45.184;5.786;2023-03-30T22:39:40;14.70;82.20
42199;DHT22;27868;45.184;5.786;2023-03-30T22:42:25;14.70;82.40
42199;DHT22;27868;45.184;5.786;2023-03-30T22:45:10;14.70;82.50
42199;DHT22;27868;45.184;5.786;2023-03-30T22:47:55;14.70;82.60
42199;DHT22;27868;45.184;5.786;2023-03-30T22:50:40;14.60;82.50
42199;DHT22;27868;45.184;5.786;2023-03-30T22:53:24;14.50;82.50
42199;DHT22;27868;45.184;5.786;2023-03-30T22:56:09;14.50;82.50
42199;DHT22;27868;45.184;5.786;2023-03-30T22:58:53;14.50;82.60
42199;DHT22;27868;45.184;5.786;2023-03-30T23:01:38;14.50;82.80
42199;DHT22;27868;45.184;5.786;2023-03-30T23:04:22;14.40;82.90
42199;DHT22;27868;45.184;5.786;2023-03-30T23:07:08;14.40;83.00
42199;DHT22;27868;45.184;5.786;2023-03-30T23:09:53;14.40;83.20
42199;DHT22;27868;45.184;5.786;2023-03-30T23:12:41;14.40;83.40
42199;DHT22;27868;45.184;5.786;2023-03-30T23:15:26;14.30;83.50
42199;DHT22;27868;45.184;5.786;2023-03-30T23:18:13;14.30;83.70
42199;DHT22;27868;45.184;5.786;2023-03-30T23:20:58;14.30;83.70
42199;DHT22;27868;45.184;5.786;2023-03-30T23:23:42;14.30;83.80
42199;DHT22;27868;45.184;5.786;2023-03-30T23:26:27;14.20;84.10
42199;DHT22;27868;45.184;5.786;2023-03-30T23:29:12;14.20;84.00
42199;DHT22;27868;45.184;5.786;2023-03-30T23:31:57;14.20;84.20
42199;DHT22;27868;45.184;5.786;2023-03-30T23:34:41;14.20;84.20
42199;DHT22;27868;45.184;5.786;2023-03-30T23:37:26;14.20;84.40
42199;DHT22;27868;45.184;5.786;2023-03-30T23:40:13;14.20;84.30
42199;DHT22;27868;45.184;5.786;2023-03-30T23:42:57;14.20;84.40
42199;DHT22;27868;45.184;5.786;2023-03-30T23:45:42;14.20;84.50
42199;DHT22;27868;45.184;5.786;2023-03-30T23:48:26;14.10;84.40
42199;DHT22;27868;45.184;5.786;2023-03-30T23:51:11;14.10;84.50
42199;DHT22;27868;45.184;5.786;2023-03-30T23:53:56;14.10;84.60
42199;DHT22;27868;45.184;5.786;2023-03-30T23:56:49;14.20;84.70
42199;DHT22;27868;45.184;5.786;2023-03-30T23:59:40;14.10;84.80
